sensor_id;sensor_type;location;lat;lon;timestamp;pressure;altitude;pressure_sealevel;temperature;humidity
71384;BME280;67558;52.166;5.004;2023-08-06T00:01:41;100492.84;;;18.85;66.84
71384;BME280;67558;52.166;5.004;2023-08-06T00:04:07;100499.97;;;18.90;66.58
71384;BME280;67558;52.166;5.004;2023-08-06T00:06:32;100497.25;;;18.90;66.71
71384;BME280;67558;52.166;5.004;2023-08-06T00:08:57;100507.91;;;18.95;67.02
71384;BME280;67558;52.166;5.004;2023-08-06T00:11:23;100512.22;;;18.96;67.07
71384;BME280;67558;52.166;5.004;2023-08-06T00:13:48;100510.63;;;18.95;66.86
71384;BME280;67558;52.166;5.004;2023-08-06T00:16:13;100489.97;;;18.81;67.05
71384;BME280;67558;52.166;5.004;2023-08-06T00:18:39;100493.44;;;18.91;67.09
71384;BME280;67558;52.166;5.004;2023-08-06T00:21:05;100510.44;;;19.00;66.99
71384;BME280;67558;52.166;5.004;2023-08-06T00:23:30;100496.16;;;18.91;67.02
71384;BME280;67558;52.166;5.004;2023-08-06T00:25:56;100503.09;;;19.00;67.40
71384;BME280;67558;52.166;5.004;2023-08-06T00:28:21;100505.94;;;19.04;66.85
71384;BME280;67558;52.166;5.004;2023-08-06T00:30:52;100510.56;;;19.03;66.70
71384;BME280;67558;52.166;5.004;2023-08-06T00:33:18;100508.19;;;19.02;66.63
71384;BME280;67558;52.166;5.004;2023-08-06T00:35:43;100491.53;;;18.91;66.91
71384;BME280;67558;52.166;5.004;2023-08-06T00:38:08;100513.63;;;19.02;66.94
71384;BME280;67558;52.166;5.004;2023-08-06T00:40:34;100485.50;;;18.86;66.98
71384;BME280;67558;52.166;5.004;2023-08-06T00:42:59;100510.75;;;18.98;66.89
71384;BME280;67558;52.166;5.004;2023-08-06T00:45:25;100504.88;;;18.96;66.94
71384;BME280;67558;52.166;5.004;2023-08-06T00:47:51;100497.06;;;18.95;66.64
71384;BME280;67558;52.166;5.004;2023-08-06T00:50:17;100486.75;;;18.88;66.76
71384;BME280;67558;52.166;5.004;2023-08-06T00:52:42;100507.72;;;19.00;67.15
71384;BME280;67558;52.166;5.004;2023-08-06T00:55:08;100489.53;;;19.00;66.67
71384;BME280;67558;52.166;5.004;2023-08-06T00:57:35;100487.75;;;19.05;66.53
71384;BME280;67558;52.166;5.004;2023-08-06T01:00:02;100487.88;;;18.87;67.23
71384;BME280;67558;52.166;5.004;2023-08-06T01:02:29;100493.63;;;18.86;66.73
71384;BME280;67558;52.166;5.004;2023-08-06T01:04:54;100497.94;;;18.87;66.75
71384;BME280;67558;52.166;5.004;2023-08-06T01:07:33;100500.28;;;18.88;67.02
71384;BME280;67558;52.166;5.004;2023-08-06T01:13:16;100499.78;;;18.95;66.76
71384;BME280;67558;52.166;5.004;2023-08-06T01:15:47;100484.97;;;18.92;66.43
71384;BME280;67558;52.166;5.004;2023-08-06T01:18:14;100499.06;;;19.07;66.93
71384;BME280;67558;52.166;5.004;2023-08-06T01:20:39;100474.41;;;18.99;66.41
71384;BME280;67558;52.166;5.004;2023-08-06T01:23:05;100460.94;;;18.91;66.42
71384;BME280;67558;52.166;5.004;2023-08-06T01:25:34;100488.16;;;18.94;66.90
71384;BME280;67558;52.166;5.004;2023-08-06T01:28:09;100486.16;;;19.03;66.47
71384;BME280;67558;52.166;5.004;2023-08-06T01:30:38;100484.53;;;19.11;66.33
71384;BME280;67558;52.166;5.004;2023-08-06T01:33:08;100482.34;;;19.05;66.30
71384;BME280;67558;52.166;5.004;2023-08-06T01:35:35;100482.66;;;19.03;66.17
71384;BME280;67558;52.166;5.004;2023-08-06T01:38:02;100489.47;;;19.09;66.37
71384;BME280;67558;52.166;5.004;2023-08-06T01:40:28;100476.53;;;18.94;66.46
71384;BME280;67558;52.166;5.004;2023-08-06T01:42:54;100495.56;;;19.06;66.25
71384;BME280;67558;52.166;5.004;2023-08-06T01:45:20;100501.78;;;19.07;65.92
71384;BME280;67558;52.166;5.004;2023-08-06T01:47:45;100504.03;;;19.05;66.12
71384;BME280;67558;52.166;5.004;2023-08-06T01:50:10;100501.53;;;18.99;66.02
71384;BME280;67558;52.166;5.004;2023-08-06T01:52:36;100494.81;;;18.97;66.40
71384;BME280;67558;52.166;5.004;2023-08-06T01:55:01;100500.91;;;18.94;66.05
71384;BME280;67558;52.166;5.004;2023-08-06T01:57:26;100509.97;;;18.98;66.11
71384;BME280;67558;52.166;5.004;2023-08-06T01:59:52;100492.50;;;18.87;66.43
71384;BME280;67558;52.166;5.004;2023-08-06T02:02:17;100511.44;;;18.95;66.28
71384;BME280;67558;52.166;5.004;2023-08-06T02:04:42;100496.81;;;18.88;66.27
71384;BME280;67558;52.166;5.004;2023-08-06T02:07:08;100505.88;;;18.92;66.35
71384;BME280;67558;52.166;5.004;2023-08-06T02:09:33;100502.69;;;18.90;66.38
71384;BME280;67558;52.166;5.004;2023-08-06T02:12:00;100485.84;;;18.75;65.97
71384;BME280;67558;52.166;5.004;2023-08-06T02:14:25;100512.84;;;18.93;66.31
71384;BME280;67558;52.166;5.004;2023-08-06T02:16:51;100499.72;;;18.82;66.00
71384;BME280;67558;52.166;5.004;2023-08-06T02:19:16;100510.09;;;18.80;66.63
71384;BME280;67558;52.166;5.004;2023-08-06T02:21:42;100512.00;;;18.71;66.67
71384;BME280;67558;52.166;5.004;2023-08-06T02:24:07;100519.03;;;18.72;66.90
71384;BME280;67558;52.166;5.004;2023-08-06T02:26:32;100503.13;;;18.62;67.41
71384;BME280;67558;52.166;5.004;2023-08-06T02:28:58;100506.47;;;18.68;67.14
71384;BME280;67558;52.166;5.004;2023-08-06T02:31:23;100500.09;;;18.63;67.17
71384;BME280;67558;52.166;5.004;2023-08-06T02:33:48;100503.75;;;18.68;67.05
71384;BME280;67558;52.166;5.004;2023-08-06T02:36:14;100492.81;;;18.55;66.81
71384;BME280;67558;52.166;5.004;2023-08-06T02:38:39;100512.00;;;18.71;66.87
71384;BME280;67558;52.166;5.004;2023-08-06T02:41:05;100506.56;;;18.71;67.54
71384;BME280;67558;52.166;5.004;2023-08-06T02:43:30;100491.94;;;18.72;67.02
71384;BME280;67558;52.166;5.004;2023-08-06T02:45:59;100488.00;;;18.61;67.33
71384;BME280;67558;52.166;5.004;2023-08-06T02:48:25;100486.59;;;18.55;67.29
71384;BME280;67558;52.166;5.004;2023-08-06T02:50:50;100504.22;;;18.70;67.24
71384;BME280;67558;52.166;5.004;2023-08-06T02:53:16;100506.13;;;18.69;67.55
71384;BME280;67558;52.166;5.004;2023-08-06T02:55:46;100498.03;;;18.60;67.75
71384;BME280;67558;52.166;5.004;2023-08-06T02:58:13;100495.31;;;18.60;67.87
71384;BME280;67558;52.166;5.004;2023-08-06T03:00:39;100504.00;;;18.83;67.14
71384;BME280;67558;52.166;5.004;2023-08-06T03:03:04;100492.38;;;18.83;66.90
71384;BME280;67558;52.166;5.004;2023-08-06T03:05:29;100480.09;;;19.07;65.54
71384;BME280;67558;52.166;5.004;2023-08-06T03:07:54;100484.44;;;19.20;65.27
71384;BME280;67558;52.166;5.004;2023-08-06T03:10:20;100479.97;;;19.24;65.39
71384;BME280;67558;52.166;5.004;2023-08-06T03:12:45;100479.28;;;19.27;64.92
71384;BME280;67558;52.166;5.004;2023-08-06T03:15:10;100483.38;;;19.33;64.80
71384;BME280;67558;52.166;5.004;2023-08-06T03:17:36;100485.91;;;19.17;65.27
71384;BME280;67558;52.166;5.004;2023-08-06T03:20:01;100481.09;;;19.23;64.91
71384;BME280;67558;52.166;5.004;2023-08-06T03:22:27;100495.06;;;19.34;65.07
71384;BME280;67558;52.166;5.004;2023-08-06T03:24:52;100499.78;;;19.37;65.07
71384;BME280;67558;52.166;5.004;2023-08-06T03:27:17;100499.13;;;19.40;65.02
71384;BME280;67558;52.166;5.004;2023-08-06T03:29:43;100489.63;;;19.34;65.23
71384;BME280;67558;52.166;5.004;2023-08-06T03:32:08;100489.72;;;19.37;65.12
71384;BME280;67558;52.166;5.004;2023-08-06T03:34:33;100503.97;;;19.34;65.18
71384;BME280;67558;52.166;5.004;2023-08-06T03:36:59;100495.91;;;19.26;65.02
71384;BME280;67558;52.166;5.004;2023-08-06T03:39:24;100485.91;;;19.17;65.39
71384;BME280;67558;52.166;5.004;2023-08-06T03:41:49;100499.53;;;19.30;65.14
71384;BME280;67558;52.166;5.004;2023-08-06T03:44:14;100496.84;;;19.30;65.00
71384;BME280;67558;52.166;5.004;2023-08-06T03:46:40;100491.13;;;19.22;64.93
71384;BME280;67558;52.166;5.004;2023-08-06T03:49:05;100491.81;;;19.19;65.04
71384;BME280;67558;52.166;5.004;2023-08-06T03:51:30;100502.56;;;19.28;65.07
71384;BME280;67558;52.166;5.004;2023-08-06T03:53:56;100489.22;;;19.23;65.36
71384;BME280;67558;52.166;5.004;2023-08-06T03:56:21;100491.59;;;19.24;65.33
71384;BME280;67558;52.166;5.004;2023-08-06T03:58:47;100484.44;;;19.20;65.23
71384;BME280;67558;52.166;5.004;2023-08-06T04:01:12;100492.06;;;19.27;65.43
71384;BME280;67558;52.166;5.004;2023-08-06T04:03:37;100501.13;;;19.31;65.37
71384;BME280;67558;52.166;5.004;2023-08-06T04:06:03;100503.38;;;19.29;65.46
71384;BME280;67558;52.166;5.004;2023-08-06T04:08:28;100492.50;;;19.29;65.38
71384;BME280;67558;52.166;5.004;2023-08-06T04:10:54;100509.03;;;19.36;65.26
71384;BME280;67558;52.166;5.004;2023-08-06T04:13:19;100496.16;;;19.33;65.42
71384;BME280;67558;52.166;5.004;2023-08-06T04:15:45;100495.56;;;19.27;65.68
71384;BME280;67558;52.166;5.004;2023-08-06T04:18:11;100502.91;;;19.27;65.47
71384;BME280;67558;52.166;5.004;2023-08-06T04:20:46;100490.34;;;19.22;65.39
71384;BME280;67558;52.166;5.004;2023-08-06T04:23:12;100506.88;;;19.29;65.28
71384;BME280;67558;52.166;5.004;2023-08-06T04:25:38;100507.22;;;19.28;65.47
71384;BME280;67558;52.166;5.004;2023-08-06T04:28:03;100515.34;;;19.28;65.51
71384;BME280;67558;52.166;5.004;2023-08-06T04:30:29;100510.94;;;19.23;65.47
71384;BME280;67558;52.166;5.004;2023-08-06T04:32:56;100514.06;;;19.25;65.56
71384;BME280;67558;52.166;5.004;2023-08-06T04:35:22;100515.75;;;19.17;65.57
71384;BME280;67558;52.166;5.004;2023-08-06T04:37:47;100519.06;;;19.23;65.70
71384;BME280;67558;52.166;5.004;2023-08-06T04:40:12;100510.63;;;19.16;65.91
71384;BME280;67558;52.166;5.004;2023-08-06T04:42:38;100536.91;;;19.24;66.00
71384;BME280;67558;52.166;5.004;2023-08-06T04:45:04;100516.06;;;19.16;65.71
71384;BME280;67558;52.166;5.004;2023-08-06T04:47:29;100533.88;;;19.26;65.87
71384;BME280;67558;52.166;5.004;2023-08-06T04:49:55;100536.44;;;19.22;66.26
71384;BME280;67558;52.166;5.004;2023-08-06T04:52:20;100533.13;;;19.16;66.23
71384;BME280;67558;52.166;5.004;2023-08-06T04:54:45;100533.31;;;19.11;66.12
71384;BME280;67558;52.166;5.004;2023-08-06T04:57:11;100520.75;;;19.07;65.95
71384;BME280;67558;52.166;5.004;2023-08-06T04:59:36;100533.56;;;19.18;66.04
71384;BME280;67558;52.166;5.004;2023-08-06T05:02:03;100537.91;;;19.19;65.97
71384;BME280;67558;52.166;5.004;2023-08-06T05:04:29;100547.44;;;19.26;66.14
71384;BME280;67558;52.166;5.004;2023-08-06T05:06:55;100551.25;;;19.24;65.99
71384;BME280;67558;52.166;5.004;2023-08-06T05:09:20;100540.94;;;19.18;65.97
71384;BME280;67558;52.166;5.004;2023-08-06T05:11:49;100552.84;;;19.26;66.28
71384;BME280;67558;52.166;5.004;2023-08-06T05:14:14;100533.78;;;19.13;66.01
71384;BME280;67558;52.166;5.004;2023-08-06T05:16:39;100561.56;;;19.31;66.04
71384;BME280;67558;52.166;5.004;2023-08-06T05:19:05;100552.56;;;19.18;66.55
71384;BME280;67558;52.166;5.004;2023-08-06T05:21:30;100547.81;;;19.15;66.28
71384;BME280;67558;52.166;5.004;2023-08-06T05:23:55;100574.41;;;19.22;66.49
71384;BME280;67558;52.166;5.004;2023-08-06T05:26:21;100566.94;;;19.19;66.13
71384;BME280;67558;52.166;5.004;2023-08-06T05:28:46;100578.03;;;19.26;66.33
71384;BME280;67558;52.166;5.004;2023-08-06T05:31:12;100560.44;;;19.11;65.99
71384;BME280;67558;52.166;5.004;2023-08-06T05:33:37;100579.56;;;19.15;66.28
71384;BME280;67558;52.166;5.004;2023-08-06T05:36:03;100582.25;;;19.15;66.35
71384;BME280;67558;52.166;5.004;2023-08-06T05:38:29;100584.69;;;19.08;66.42
71384;BME280;67558;52.166;5.004;2023-08-06T05:40:55;100583.09;;;19.07;66.48
71384;BME280;67558;52.166;5.004;2023-08-06T05:43:20;100549.47;;;18.78;66.07
71384;BME280;67558;52.166;5.004;2023-08-06T05:45:46;100561.53;;;18.89;66.30
71384;BME280;67558;52.166;5.004;2023-08-06T05:48:12;100601.41;;;19.10;66.50
71384;BME280;67558;52.166;5.004;2023-08-06T05:50:37;100606.50;;;19.11;66.44
71384;BME280;67558;52.166;5.004;2023-08-06T05:53:03;100600.81;;;19.04;66.62
71384;BME280;67558;52.166;5.004;2023-08-06T05:55:28;100608.13;;;19.12;66.51
71384;BME280;67558;52.166;5.004;2023-08-06T05:57:54;100584.13;;;18.93;66.50
71384;BME280;67558;52.166;5.004;2023-08-06T06:00:21;100614.66;;;19.11;66.27
71384;BME280;67558;52.166;5.004;2023-08-06T06:02:47;100610.84;;;19.03;66.38
71384;BME280;67558;52.166;5.004;2023-08-06T06:05:12;100595.03;;;18.85;66.02
71384;BME280;67558;52.166;5.004;2023-08-06T06:07:38;100600.75;;;18.83;66.14
71384;BME280;67558;52.166;5.004;2023-08-06T06:10:03;100613.00;;;18.89;66.30
71384;BME280;67558;52.166;5.004;2023-08-06T06:12:29;100634.66;;;18.98;66.23
71384;BME280;67558;52.166;5.004;2023-08-06T06:14:54;100614.94;;;18.89;66.43
71384;BME280;67558;52.166;5.004;2023-08-06T06:17:19;100624.44;;;18.95;66.26
71384;BME280;67558;52.166;5.004;2023-08-06T06:19:44;100591.19;;;18.77;65.98
71384;BME280;67558;52.166;5.004;2023-08-06T06:22:10;100637.03;;;18.99;66.01
71384;BME280;67558;52.166;5.004;2023-08-06T06:24:35;100628.47;;;18.89;65.86
71384;BME280;67558;52.166;5.004;2023-08-06T06:27:00;100628.97;;;18.91;66.02
71384;BME280;67558;52.166;5.004;2023-08-06T06:29:26;100645.03;;;18.96;65.62
71384;BME280;67558;52.166;5.004;2023-08-06T06:31:51;100623.56;;;18.73;65.86
71384;BME280;67558;52.166;5.004;2023-08-06T06:34:16;100632.16;;;18.75;66.01
71384;BME280;67558;52.166;5.004;2023-08-06T06:36:42;100649.84;;;18.81;65.73
71384;BME280;67558;52.166;5.004;2023-08-06T06:39:07;100654.44;;;18.90;65.91
71384;BME280;67558;52.166;5.004;2023-08-06T06:41:33;100663.72;;;18.89;66.02
71384;BME280;67558;52.166;5.004;2023-08-06T06:43:58;100632.03;;;18.72;66.07
71384;BME280;67558;52.166;5.004;2023-08-06T06:46:24;100630.28;;;18.67;66.12
71384;BME280;67558;52.166;5.004;2023-08-06T06:48:49;100674.06;;;18.95;65.77
71384;BME280;67558;52.166;5.004;2023-08-06T06:51:15;100652.88;;;18.89;65.80
71384;BME280;67558;52.166;5.004;2023-08-06T06:53:41;100670.88;;;18.93;66.02
71384;BME280;67558;52.166;5.004;2023-08-06T06:56:06;100642.38;;;18.78;66.09
71384;BME280;67558;52.166;5.004;2023-08-06T06:58:32;100658.28;;;18.89;65.89
71384;BME280;67558;52.166;5.004;2023-08-06T07:00:57;100653.00;;;18.92;66.15
71384;BME280;67558;52.166;5.004;2023-08-06T07:03:23;100640.75;;;18.86;65.96
71384;BME280;67558;52.166;5.004;2023-08-06T07:05:49;100666.38;;;18.97;65.81
71384;BME280;67558;52.166;5.004;2023-08-06T07:08:15;100663.69;;;18.97;66.10
71384;BME280;67558;52.166;5.004;2023-08-06T07:10:41;100653.66;;;18.89;66.18
71384;BME280;67558;52.166;5.004;2023-08-06T07:13:08;100641.72;;;18.81;65.95
71384;BME280;67558;52.166;5.004;2023-08-06T07:15:33;100643.16;;;18.79;66.14
71384;BME280;67558;52.166;5.004;2023-08-06T07:17:59;100669.56;;;18.99;66.00
71384;BME280;67558;52.166;5.004;2023-08-06T07:20:26;100686.91;;;19.07;66.01
71384;BME280;67558;52.166;5.004;2023-08-06T07:22:54;100694.25;;;19.07;66.09
71384;BME280;67558;52.166;5.004;2023-08-06T07:25:20;100684.38;;;19.02;65.84
71384;BME280;67558;52.166;5.004;2023-08-06T07:27:45;100687.09;;;19.02;65.94
71384;BME280;67558;52.166;5.004;2023-08-06T07:30:11;100695.50;;;19.09;65.90
71384;BME280;67558;52.166;5.004;2023-08-06T07:32:37;100659.56;;;18.91;65.68
71384;BME280;67558;52.166;5.004;2023-08-06T07:35:04;100690.59;;;19.02;65.48
71384;BME280;67558;52.166;5.004;2023-08-06T07:37:29;100682.97;;;18.96;65.59
71384;BME280;67558;52.166;5.004;2023-08-06T07:39:55;100704.78;;;19.08;65.59
71384;BME280;67558;52.166;5.004;2023-08-06T07:42:22;100695.69;;;19.04;65.48
71384;BME280;67558;52.166;5.004;2023-08-06T07:44:56;100692.16;;;19.03;65.56
71384;BME280;67558;52.166;5.004;2023-08-06T07:47:23;100713.19;;;19.15;65.23
71384;BME280;67558;52.166;5.004;2023-08-06T07:49:48;100700.31;;;19.03;65.39
71384;BME280;67558;52.166;5.004;2023-08-06T07:52:14;100672.00;;;18.83;65.48
71384;BME280;67558;52.166;5.004;2023-08-06T07:54:40;100719.88;;;19.18;65.58
71384;BME280;67558;52.166;5.004;2023-08-06T07:57:06;100721.59;;;19.22;65.62
71384;BME280;67558;52.166;5.004;2023-08-06T07:59:32;100707.09;;;19.18;65.36
71384;BME280;67558;52.166;5.004;2023-08-06T08:01:58;100703.13;;;19.16;65.54
71384;BME280;67558;52.166;5.004;2023-08-06T08:04:24;100712.84;;;19.26;65.60
71384;BME280;67558;52.166;5.004;2023-08-06T08:06:50;100714.41;;;19.27;65.63
71384;BME280;67558;52.166;5.004;2023-08-06T08:09:16;100726.66;;;19.33;65.74
71384;BME280;67558;52.166;5.004;2023-08-06T08:11:42;100706.78;;;19.20;65.74
71384;BME280;67558;52.166;5.004;2023-08-06T08:14:08;100728.91;;;19.31;65.78
71384;BME280;67558;52.166;5.004;2023-08-06T08:16:34;100729.38;;;19.33;65.57
71384;BME280;67558;52.166;5.004;2023-08-06T08:18:59;100705.88;;;19.07;65.91
71384;BME280;67558;52.166;5.004;2023-08-06T08:21:25;100712.88;;;19.17;65.99
71384;BME280;67558;52.166;5.004;2023-08-06T08:23:51;100641.09;;;18.76;66.02
71384;BME280;67558;52.166;5.004;2023-08-06T08:26:16;100711.41;;;19.19;66.14
71384;BME280;67558;52.166;5.004;2023-08-06T08:28:42;100722.03;;;19.33;66.01
71384;BME280;67558;52.166;5.004;2023-08-06T08:31:11;100727.34;;;19.30;66.19
71384;BME280;67558;52.166;5.004;2023-08-06T08:33:41;100736.38;;;19.42;66.16
71384;BME280;67558;52.166;5.004;2023-08-06T08:36:06;100739.88;;;19.43;66.47
71384;BME280;67558;52.166;5.004;2023-08-06T08:38:32;100746.78;;;19.32;66.86
71384;BME280;67558;52.166;5.004;2023-08-06T08:40:57;100722.69;;;19.30;66.25
71384;BME280;67558;52.166;5.004;2023-08-06T08:43:24;100717.75;;;19.32;66.01
71384;BME280;67558;52.166;5.004;2023-08-06T08:45:54;100748.44;;;19.54;65.85
71384;BME280;67558;52.166;5.004;2023-08-06T08:48:27;100739.56;;;19.44;65.86
71384;BME280;67558;52.166;5.004;2023-08-06T08:50:55;100737.28;;;19.47;65.90
71384;BME280;67558;52.166;5.004;2023-08-06T08:53:21;100733.78;;;19.46;65.86
71384;BME280;67558;52.166;5.004;2023-08-06T08:55:50;100735.38;;;19.47;65.70
71384;BME280;67558;52.166;5.004;2023-08-06T08:58:16;100736.66;;;19.50;65.91
71384;BME280;67558;52.166;5.004;2023-08-06T09:00:42;100746.66;;;19.58;66.06
71384;BME280;67558;52.166;5.004;2023-08-06T09:03:09;100763.88;;;19.62;66.00
71384;BME280;67558;52.166;5.004;2023-08-06T09:05:36;100740.16;;;19.50;66.07
71384;BME280;67558;52.166;5.004;2023-08-06T09:08:04;100758.56;;;19.65;65.96
71384;BME280;67558;52.166;5.004;2023-08-06T09:10:32;100756.06;;;19.60;65.78
71384;BME280;67558;52.166;5.004;2023-08-06T09:12:59;100745.88;;;19.49;65.64
71384;BME280;67558;52.166;5.004;2023-08-06T09:15:28;100744.63;;;19.46;65.99
71384;BME280;67558;52.166;5.004;2023-08-06T09:17:55;100767.84;;;19.64;65.92
71384;BME280;67558;52.166;5.004;2023-08-06T09:20:21;100773.44;;;19.68;65.91
71384;BME280;67558;52.166;5.004;2023-08-06T09:22:47;100773.09;;;19.70;66.03
71384;BME280;67558;52.166;5.004;2023-08-06T09:25:25;100753.53;;;19.55;66.28
71384;BME280;67558;52.166;5.004;2023-08-06T09:27:53;100687.19;;;19.14;66.03
71384;BME280;67558;52.166;5.004;2023-08-06T09:30:31;100796.38;;;19.79;66.07
71384;BME280;67558;52.166;5.004;2023-08-06T09:32:58;100794.78;;;19.78;65.79
71384;BME280;67558;52.166;5.004;2023-08-06T09:35:25;100753.72;;;19.50;65.89
71384;BME280;67558;52.166;5.004;2023-08-06T09:37:50;100785.06;;;19.69;65.81
71384;BME280;67558;52.166;5.004;2023-08-06T09:40:31;100795.44;;;19.75;66.29
71384;BME280;67558;52.166;5.004;2023-08-06T09:42:58;100801.81;;;19.79;65.98
71384;BME280;67558;52.166;5.004;2023-08-06T09:45:37;100799.44;;;19.69;65.99
71384;BME280;67558;52.166;5.004;2023-08-06T09:48:06;100809.00;;;19.75;66.00
71384;BME280;67558;52.166;5.004;2023-08-06T09:50:35;100796.91;;;19.64;65.93
71384;BME280;67558;52.166;5.004;2023-08-06T09:53:07;100814.91;;;19.69;65.81
71384;BME280;67558;52.166;5.004;2023-08-06T09:55:34;100743.84;;;19.07;66.02
71384;BME280;67558;52.166;5.004;2023-08-06T09:58:00;100814.00;;;19.56;66.36
71384;BME280;67558;52.166;5.004;2023-08-06T10:00:26;100778.66;;;19.35;66.03
71384;BME280;67558;52.166;5.004;2023-08-06T10:02:53;100783.28;;;19.43;66.19
71384;BME280;67558;52.166;5.004;2023-08-06T10:05:23;100800.44;;;19.56;66.31
71384;BME280;67558;52.166;5.004;2023-08-06T10:07:49;100826.28;;;19.71;66.33
71384;BME280;67558;52.166;5.004;2023-08-06T10:10:16;100782.47;;;19.42;66.24
71384;BME280;67558;52.166;5.004;2023-08-06T10:12:46;100825.13;;;19.72;66.40
71384;BME280;67558;52.166;5.004;2023-08-06T10:15:16;100789.91;;;19.54;66.53
71384;BME280;67558;52.166;5.004;2023-08-06T10:17:43;100818.13;;;19.71;66.39
71384;BME280;67558;52.166;5.004;2023-08-06T10:20:11;100824.31;;;19.80;66.41
71384;BME280;67558;52.166;5.004;2023-08-06T10:22:42;100821.75;;;19.83;66.45
71384;BME280;67558;52.166;5.004;2023-08-06T10:25:08;100826.97;;;19.89;66.39
71384;BME280;67558;52.166;5.004;2023-08-06T10:27:35;100833.03;;;19.94;66.39
71384;BME280;67558;52.166;5.004;2023-08-06T10:32:49;100837.00;;;19.97;66.08
71384;BME280;67558;52.166;5.004;2023-08-06T10:35:36;100825.88;;;19.90;66.02
71384;BME280;67558;52.166;5.004;2023-08-06T10:43:33;100841.75;;;20.00;65.95
71384;BME280;67558;52.166;5.004;2023-08-06T10:46:01;100828.84;;;19.97;66.07
71384;BME280;67558;52.166;5.004;2023-08-06T10:48:45;100822.00;;;19.91;65.98
71384;BME280;67558;52.166;5.004;2023-08-06T10:51:12;100840.28;;;20.02;65.99
71384;BME280;67558;52.166;5.004;2023-08-06T10:53:41;100802.63;;;19.71;65.74
71384;BME280;67558;52.166;5.004;2023-08-06T10:56:19;100838.56;;;19.98;66.05
71384;BME280;67558;52.166;5.004;2023-08-06T10:58:45;100829.84;;;19.92;65.69
71384;BME280;67558;52.166;5.004;2023-08-06T11:01:11;100845.13;;;19.97;65.68
71384;BME280;67558;52.166;5.004;2023-08-06T11:03:38;100833.66;;;19.91;66.14
71384;BME280;67558;52.166;5.004;2023-08-06T11:06:04;100830.47;;;19.89;65.84
71384;BME280;67558;52.166;5.004;2023-08-06T11:08:42;100855.94;;;20.05;66.00
71384;BME280;67558;52.166;5.004;2023-08-06T11:11:14;100853.72;;;20.08;65.87
71384;BME280;67558;52.166;5.004;2023-08-06T11:13:40;100847.34;;;20.03;65.95
71384;BME280;67558;52.166;5.004;2023-08-06T11:16:06;100853.56;;;20.04;65.79
71384;BME280;67558;52.166;5.004;2023-08-06T11:18:33;100858.19;;;20.03;65.61
71384;BME280;67558;52.166;5.004;2023-08-06T11:21:00;100861.84;;;20.08;65.63
71384;BME280;67558;52.166;5.004;2023-08-06T11:23:29;100862.03;;;20.02;65.12
71384;BME280;67558;52.166;5.004;2023-08-06T11:25:58;100868.13;;;19.99;65.41
71384;BME280;67558;52.166;5.004;2023-08-06T11:28:24;100823.38;;;19.67;65.15
71384;BME280;67558;52.166;5.004;2023-08-06T11:30:50;100846.69;;;19.77;65.39
71384;BME280;67558;52.166;5.004;2023-08-06T11:33:22;100869.41;;;19.93;65.35
71384;BME280;67558;52.166;5.004;2023-08-06T11:35:49;100844.28;;;19.75;65.06
71384;BME280;67558;52.166;5.004;2023-08-06T11:38:14;100860.88;;;19.74;65.19
71384;BME280;67558;52.166;5.004;2023-08-06T11:40:41;100858.16;;;19.74;64.93
71384;BME280;67558;52.166;5.004;2023-08-06T11:43:08;100879.06;;;19.82;64.91
71384;BME280;67558;52.166;5.004;2023-08-06T11:45:37;100844.78;;;19.69;64.99
71384;BME280;67558;52.166;5.004;2023-08-06T11:48:02;100864.22;;;19.79;64.88
71384;BME280;67558;52.166;5.004;2023-08-06T11:50:28;100871.09;;;19.77;65.01
71384;BME280;67558;52.166;5.004;2023-08-06T11:52:58;100887.94;;;19.91;65.08
71384;BME280;67558;52.166;5.004;2023-08-06T11:55:25;100853.41;;;19.71;65.08
71384;BME280;67558;52.166;5.004;2023-08-06T11:57:50;100887.31;;;19.94;65.17
71384;BME280;67558;52.166;5.004;2023-08-06T12:00:16;100878.41;;;19.85;65.22
71384;BME280;67558;52.166;5.004;2023-08-06T12:02:45;100846.06;;;19.71;65.03
71384;BME280;67558;52.166;5.004;2023-08-06T12:05:21;100870.72;;;19.87;64.77
71384;BME280;67558;52.166;5.004;2023-08-06T12:07:56;100891.28;;;19.97;64.78
71384;BME280;67558;52.166;5.004;2023-08-06T12:10:22;100897.19;;;19.99;64.66
71384;BME280;67558;52.166;5.004;2023-08-06T12:12:49;100873.78;;;19.86;64.58
71384;BME280;67558;52.166;5.004;2023-08-06T12:15:15;100894.03;;;19.88;64.39
71384;BME280;67558;52.166;5.004;2023-08-06T12:17:41;100879.84;;;19.82;64.08
71384;BME280;67558;52.166;5.004;2023-08-06T12:20:07;100882.72;;;19.86;64.16
71384;BME280;67558;52.166;5.004;2023-08-06T12:22:34;100898.19;;;19.94;64.39
71384;BME280;67558;52.166;5.004;2023-08-06T12:25:13;100896.56;;;19.93;64.53
71384;BME280;67558;52.166;5.004;2023-08-06T12:27:42;100902.50;;;19.87;64.83
71384;BME280;67558;52.166;5.004;2023-08-06T12:30:08;100902.81;;;19.85;65.28
71384;BME280;67558;52.166;5.004;2023-08-06T12:32:34;100888.81;;;19.74;65.08
71384;BME280;67558;52.166;5.004;2023-08-06T12:35:00;100901.53;;;19.91;65.05
71384;BME280;67558;52.166;5.004;2023-08-06T12:37:26;100902.19;;;19.88;65.63
71384;BME280;67558;52.166;5.004;2023-08-06T12:39:51;100906.28;;;20.03;65.42
71384;BME280;67558;52.166;5.004;2023-08-06T12:42:17;100908.94;;;20.12;64.94
71384;BME280;67558;52.166;5.004;2023-08-06T12:44:42;100900.97;;;20.07;64.56
71384;BME280;67558;52.166;5.004;2023-08-06T12:47:08;100910.78;;;19.99;65.33
71384;BME280;67558;52.166;5.004;2023-08-06T12:49:34;100906.94;;;19.91;65.27
71384;BME280;67558;52.166;5.004;2023-08-06T12:52:00;100913.13;;;20.09;64.65
71384;BME280;67558;52.166;5.004;2023-08-06T12:54:27;100911.19;;;20.10;64.32
71384;BME280;67558;52.166;5.004;2023-08-06T12:56:52;100912.78;;;20.11;64.57
71384;BME280;67558;52.166;5.004;2023-08-06T12:59:20;100924.72;;;20.18;64.49